Time;durP1;ratioP1;P1;durP2;ratioP2;P2;SDS_P1;SDS_P2;PMS_P1;PMS_P2;Temp;Humidity;BMP_temperature;BMP_pressure;BME280_temperature;BME280_humidity;BME280_pressure;Samples;Min_cycle;Max_cycle;Signal;HPM_P1;HPM_P2
2023/07/27 00:02:10;;;;;;;13.05;9.07;;;13.50;87.50;;;;;;5052204;28;20037;-75
2023/07/27 00:04:36;;;;;;;13.57;8.98;;;13.50;87.50;;;;;;5052091;28;20045;-75
2023/07/27 00:07:03;;;;;;;11.98;8.75;;;13.50;87.10;;;;;;5035864;28;20079;-75
2023/07/27 00:09:28;;;;;;;11.70;8.35;;;13.50;87.00;;;;;;5035657;28;20045;-75
2023/07/27 00:11:55;;;;;;;12.68;8.15;;;13.50;86.90;;;;;;5035457;28;20057;-75
2023/07/27 00:14:21;;;;;;;14.02;8.73;;;13.50;86.80;;;;;;5035337;28;20079;-75
2023/07/27 00:16:46;;;;;;;14.40;8.70;;;13.50;87.40;;;;;;5051942;28;20077;-75
2023/07/27 00:19:13;;;;;;;13.73;8.70;;;13.50;87.80;;;;;;5019232;28;20037;-75
2023/07/27 00:21:38;;;;;;;9.60;7.32;;;13.50;87.90;;;;;;5051922;28;20120;-75
2023/07/27 00:24:04;;;;;;;12.50;9.02;;;13.50;87.90;;;;;;5018839;28;20124;-75
2023/07/27 00:26:30;;;;;;;13.95;8.65;;;13.50;87.90;;;;;;5051886;28;20075;-75
2023/07/27 00:28:56;;;;;;;10.93;7.55;;;13.50;87.60;;;;;;5052023;28;20041;-75
2023/07/27 00:31:21;;;;;;;21.67;8.45;;;13.60;87.30;;;;;;5051841;28;20040;-76
2023/07/27 00:33:47;;;;;;;9.05;7.53;;;13.60;87.40;;;;;;5051490;28;20033;-76
2023/07/27 00:36:13;;;;;;;12.45;8.43;;;13.50;87.80;;;;;;5051547;28;20504;-75
2023/07/27 00:38:38;;;;;;;9.02;7.25;;;13.50;87.70;;;;;;5051976;28;20033;-76
2023/07/27 00:41:04;;;;;;;12.70;8.45;;;13.50;87.50;;;;;;5051616;28;20427;-75
2023/07/27 00:43:30;;;;;;;10.85;7.55;;;13.60;87.40;;;;;;5035356;28;20126;-75
2023/07/27 00:45:57;;;;;;;9.95;7.00;;;13.60;86.90;;;;;;5051835;28;20164;-76
2023/07/27 00:48:23;;;;;;;12.65;7.95;;;13.70;86.80;;;;;;5051335;28;20049;-75
2023/07/27 00:50:51;;;;;;;12.63;7.40;;;13.70;87.20;;;;;;5051562;28;20127;-76
2023/07/27 00:53:17;;;;;;;11.38;7.70;;;13.70;87.10;;;;;;5051515;28;20059;-76
2023/07/27 00:55:44;;;;;;;10.07;6.88;;;13.70;87.70;;;;;;5034989;28;20041;-76
2023/07/27 00:58:11;;;;;;;8.88;6.93;;;13.70;87.40;;;;;;5051453;28;20036;-76
2023/07/27 01:00:38;;;;;;;11.02;7.47;;;13.70;87.30;;;;;;5051480;28;20119;-76
2023/07/27 01:03:04;;;;;;;9.50;6.72;;;13.70;87.20;;;;;;5051569;28;20045;-76
2023/07/27 01:05:30;;;;;;;9.32;7.25;;;13.70;87.10;;;;;;5034794;28;20103;-76
2023/07/27 01:07:56;;;;;;;9.27;6.97;;;13.80;86.90;;;;;;5051445;28;20102;-76
2023/07/27 01:10:33;;;;;;;11.50;8.20;;;13.80;87.20;;;;;;5035120;28;20041;-76
2023/07/27 01:13:10;;;;;;;11.02;7.80;;;13.70;87.40;;;;;;5051366;28;20049;-76
2023/07/27 01:15:41;;;;;;;11.20;7.63;;;13.70;87.30;;;;;;5051223;28;20489;-76
2023/07/27 01:18:10;;;;;;;11.52;8.07;;;13.70;87.50;;;;;;5051352;28;20086;-75
2023/07/27 01:21:13;;;;;;;12.10;7.40;;;13.70;87.30;;;;;;5051509;28;20044;-76
2023/07/27 01:24:12;;;;;;;9.38;6.50;;;13.80;87.30;;;;;;5051295;28;20106;-76
2023/07/27 01:26:57;;;;;;;11.55;8.02;;;13.70;87.40;;;;;;5034651;28;20077;-76
2023/07/27 01:29:25;;;;;;;;;;;13.70;87.10;;;;;;5051557;28;20041;-76
2023/07/27 01:31:53;;;;;;;10.45;7.57;;;13.70;87.40;;;;;;5051481;28;19939;-75
2023/07/27 01:34:29;;;;;;;10.80;8.52;;;13.70;87.30;;;;;;5034506;28;20048;-76
2023/07/27 01:37:01;;;;;;;10.63;8.32;;;13.70;87.00;;;;;;5051083;28;20060;-76
2023/07/27 01:39:30;;;;;;;14.35;8.48;;;13.70;87.20;;;;;;5051387;28;20393;-76
2023/07/27 01:41:56;;;;;;;12.18;8.15;;;13.70;87.20;;;;;;5051055;28;20036;-76
2023/07/27 01:44:28;;;;;;;12.15;8.40;;;13.70;87.00;;;;;;5034717;28;20076;-76
2023/07/27 01:46:55;;;;;;;10.43;8.27;;;13.70;87.10;;;;;;5053803;28;20497;-76
2023/07/27 01:49:23;;;;;;;12.18;8.57;;;13.70;87.10;;;;;;5054622;28;20060;-75
2023/07/27 01:51:50;;;;;;;13.65;9.50;;;13.70;87.10;;;;;;5054700;28;20080;-75
2023/07/27 01:54:16;;;;;;;11.50;8.63;;;13.70;87.40;;;;;;5054661;28;20040;-75
2023/07/27 01:56:44;;;;;;;13.20;8.05;;;13.60;87.40;;;;;;5054708;28;20532;-75
2023/07/27 01:59:10;;;;;;;11.63;8.07;;;13.70;86.90;;;;;;5054580;28;20120;-75
2023/07/27 02:01:37;;;;;;;11.70;8.25;;;13.70;87.20;;;;;;5054527;28;20162;-75
2023/07/27 02:04:04;;;;;;;11.30;8.77;;;13.70;87.20;;;;;;5021457;28;20037;-75
2023/07/27 02:06:30;;;;;;;10.65;8.10;;;13.70;87.30;;;;;;5054470;28;20110;-75
2023/07/27 02:08:56;;;;;;;10.20;7.00;;;13.80;87.20;;;;;;5054352;28;20040;-75
2023/07/27 02:11:24;;;;;;;13.48;8.35;;;13.70;86.90;;;;;;5037738;28;20047;-76
2023/07/27 02:13:59;;;;;;;12.75;8.02;;;13.80;86.90;;;;;;5054593;28;20076;-75
2023/07/27 02:16:32;;;;;;;10.30;7.93;;;13.80;87.10;;;;;;5054206;28;20053;-76
2023/07/27 02:19:00;;;;;;;11.73;8.18;;;13.80;87.00;;;;;;5054581;28;20385;-75
2023/07/27 02:21:28;;;;;;;9.25;7.28;;;13.80;86.80;;;;;;5054111;28;20041;-76
2023/07/27 02:23:54;;;;;;;10.32;7.55;;;13.80;86.90;;;;;;5053975;28;20052;-75
2023/07/27 02:26:21;;;;;;;14.63;8.88;;;13.80;86.80;;;;;;5054057;28;20047;-75
2023/07/27 02:28:46;;;;;;;10.80;8.30;;;13.90;86.70;;;;;;5037389;28;20045;-76
2023/07/27 02:31:12;;;;;;;13.10;8.63;;;13.90;86.60;;;;;;5037399;28;20041;-75
2023/07/27 02:33:38;;;;;;;14.40;8.93;;;14.00;86.60;;;;;;5053956;28;20041;-75
2023/07/27 02:36:04;;;;;;;12.43;9.02;;;14.00;86.80;;;;;;5053834;28;20049;-76
2023/07/27 02:38:30;;;;;;;12.60;8.10;;;13.90;86.80;;;;;;5053845;28;20044;-76
2023/07/27 02:40:56;;;;;;;9.70;7.75;;;14.00;86.70;;;;;;5053747;28;20477;-75
2023/07/27 02:43:22;;;;;;;13.25;8.63;;;14.00;86.60;;;;;;5053780;28;20124;-76
2023/07/27 02:45:47;;;;;;;9.02;8.13;;;14.00;86.50;;;;;;5053681;28;20132;-76
2023/07/27 02:48:13;;;;;;;10.00;8.30;;;14.00;86.30;;;;;;5036828;28;20142;-76
2023/07/27 02:50:49;;;;;;;11.82;8.32;;;14.00;86.10;;;;;;5037282;28;20110;-76
2023/07/27 02:53:15;;;;;;;13.40;9.15;;;14.10;86.10;;;;;;5053663;28;20052;-76
2023/07/27 02:55:40;;;;;;;10.07;7.50;;;14.10;86.30;;;;;;5036817;28;20045;-75
2023/07/27 02:58:06;;;;;;;13.68;7.78;;;14.20;86.20;;;;;;5052480;28;20051;-76
2023/07/27 03:00:32;;;;;;;11.65;8.00;;;14.20;86.30;;;;;;5053782;28;20037;-75
2023/07/27 03:03:00;;;;;;;13.85;9.38;;;14.20;86.00;;;;;;5053326;28;20124;-76
2023/07/27 03:05:27;;;;;;;12.40;7.88;;;14.20;86.30;;;;;;5053224;28;20469;-76
2023/07/27 03:07:52;;;;;;;10.32;7.80;;;14.20;86.50;;;;;;5053297;28;20051;-75
2023/07/27 03:10:18;;;;;;;13.45;8.20;;;14.20;86.70;;;;;;5053429;28;20036;-75
2023/07/27 03:12:44;;;;;;;12.20;8.52;;;14.20;86.90;;;;;;5053244;28;20072;-75
2023/07/27 03:15:10;;;;;;;11.68;8.07;;;14.30;86.90;;;;;;5036687;28;20048;-75
2023/07/27 03:17:35;;;;;;;11.75;7.97;;;14.30;87.20;;;;;;5036533;28;20041;-75
2023/07/27 03:20:01;;;;;;;11.02;8.30;;;14.20;87.10;;;;;;5053320;28;20080;-75
2023/07/27 03:22:27;;;;;;;11.93;8.02;;;14.20;87.70;;;;;;5036399;28;20037;-75
2023/07/27 03:24:52;;;;;;;11.52;8.32;;;14.20;87.10;;;;;;5052936;28;20064;-75
2023/07/27 03:27:18;;;;;;;12.90;8.05;;;14.20;87.80;;;;;;5036616;28;20094;-75
2023/07/27 03:29:44;;;;;;;12.30;8.13;;;14.30;87.40;;;;;;5052900;28;20041;-75
2023/07/27 03:32:09;;;;;;;11.18;8.35;;;14.20;87.40;;;;;;5036189;28;20162;-74
2023/07/27 03:34:35;;;;;;;11.38;9.13;;;14.30;87.40;;;;;;5052949;28;20048;-74
2023/07/27 03:37:01;;;;;;;11.65;8.07;;;14.30;88.20;;;;;;5052676;28;20045;-74
2023/07/27 03:39:27;;;;;;;11.77;8.88;;;14.30;88.70;;;;;;5052581;28;20048;-74
2023/07/27 03:41:53;;;;;;;12.43;7.95;;;14.30;88.50;;;;;;5052611;28;20041;-74
2023/07/27 03:44:18;;;;;;;14.48;9.82;;;14.20;88.90;;;;;;5052477;28;20055;-75
2023/07/27 03:46:44;;;;;;;14.25;9.82;;;14.30;88.50;;;;;;5052691;28;20056;-75
2023/07/27 03:49:10;;;;;;;13.25;9.50;;;14.30;90.20;;;;;;5051820;28;20394;-75
2023/07/27 03:51:35;;;;;;;13.73;9.70;;;14.20;89.90;;;;;;5051994;28;20041;-75
2023/07/27 03:54:01;;;;;;;16.02;10.88;;;14.20;90.40;;;;;;5051819;28;20489;-75
2023/07/27 03:56:27;;;;;;;15.50;10.35;;;14.20;90.90;;;;;;5051497;28;20434;-75
2023/07/27 03:58:52;;;;;;;16.80;11.05;;;14.20;90.50;;;;;;5052018;28;20470;-75
2023/07/27 04:01:18;;;;;;;14.38;10.18;;;14.20;91.00;;;;;;5035034;28;20041;-75
2023/07/27 04:03:44;;;;;;;15.82;11.15;;;14.10;90.70;;;;;;5034957;28;20128;-74
2023/07/27 04:06:09;;;;;;;16.30;10.60;;;14.10;92.20;;;;;;5051684;28;20041;-75
2023/07/27 04:08:35;;;;;;;18.45;11.13;;;14.10;92.20;;;;;;5051856;28;20045;-75
2023/07/27 04:11:01;;;;;;;16.55;11.80;;;14.10;92.30;;;;;;5052129;28;20044;-75
2023/07/27 04:13:26;;;;;;;16.45;11.95;;;14.10;92.70;;;;;;5052108;28;20179;-75
2023/07/27 04:15:52;;;;;;;15.50;10.75;;;14.10;92.90;;;;;;5052025;28;20052;-75
2023/07/27 04:18:18;;;;;;;18.58;11.85;;;14.10;92.40;;;;;;5035397;28;20033;-74
2023/07/27 04:20:43;;;;;;;12.15;10.00;;;14.10;92.40;;;;;;5052221;28;20044;-75
2023/07/27 04:23:09;;;;;;;19.23;12.02;;;14.10;91.80;;;;;;5051943;28;20500;-75
2023/07/27 04:25:34;;;;;;;18.92;12.57;;;14.10;92.50;;;;;;5035255;28;20033;-75
2023/07/27 04:28:00;;;;;;;17.13;11.70;;;14.10;92.30;;;;;;5052055;28;20048;-75
2023/07/27 04:30:26;;;;;;;18.02;12.65;;;14.10;92.70;;;;;;5035279;28;20045;-75
2023/07/27 04:32:51;;;;;;;17.95;12.75;;;14.10;92.90;;;;;;5051753;28;20041;-75
2023/07/27 04:35:17;;;;;;;19.58;13.20;;;14.00;92.40;;;;;;5051599;28;20048;-75
2023/07/27 04:37:43;;;;;;;16.08;11.50;;;14.10;92.00;;;;;;5051982;28;20069;-75
2023/07/27 04:40:09;;;;;;;17.85;13.00;;;14.00;91.90;;;;;;5035054;28;20511;-75
2023/07/27 04:42:34;;;;;;;18.10;13.55;;;14.00;92.50;;;;;;5051621;28;20094;-75
2023/07/27 04:45:00;;;;;;;20.08;14.38;;;14.00;92.80;;;;;;5051548;28;20051;-75
2023/07/27 04:47:26;;;;;;;18.35;14.00;;;14.00;92.90;;;;;;5035239;28;20123;-75
2023/07/27 04:49:51;;;;;;;20.33;15.10;;;14.00;92.80;;;;;;5051373;28;20174;-75
2023/07/27 04:52:17;;;;;;;19.88;15.10;;;14.00;92.60;;;;;;5051549;28;20056;-75
2023/07/27 04:54:43;;;;;;;16.48;12.43;;;14.00;93.10;;;;;;5002350;28;20132;-75
2023/07/27 04:57:08;;;;;;;18.77;14.40;;;13.90;93.30;;;;;;5034999;28;20398;-75
2023/07/27 04:59:34;;;;;;;19.92;13.90;;;14.00;93.20;;;;;;5035103;28;20186;-75
2023/07/27 05:02:00;;;;;;;18.77;13.45;;;14.00;93.20;;;;;;5051659;28;20048;-75
2023/07/27 05:04:25;;;;;;;20.45;14.32;;;14.00;93.00;;;;;;5035304;28;20574;-74
2023/07/27 05:06:51;;;;;;;23.63;14.23;;;14.00;93.40;;;;;;5051467;28;20485;-75
2023/07/27 05:09:17;;;;;;;21.42;14.63;;;14.00;93.40;;;;;;5051697;28;20393;-75
2023/07/27 05:11:42;;;;;;;17.70;13.73;;;14.00;93.40;;;;;;5018502;28;20055;-74
2023/07/27 05:14:08;;;;;;;21.25;14.73;;;14.00;93.60;;;;;;5051290;28;20041;-75
2023/07/27 05:16:34;;;;;;;20.00;13.75;;;14.00;93.70;;;;;;5051317;28;20049;-75
2023/07/27 05:18:59;;;;;;;20.02;13.82;;;14.00;93.80;;;;;;5051281;28;20037;-74
2023/07/27 05:21:25;;;;;;;19.75;13.93;;;14.00;93.90;;;;;;5053401;28;20405;-75
2023/07/27 05:23:52;;;;;;;18.45;13.45;;;14.00;94.00;;;;;;5038933;28;20037;-75
2023/07/27 05:26:18;;;;;;;18.40;12.93;;;14.00;93.90;;;;;;5038903;28;20389;-75
2023/07/27 05:28:45;;;;;;;21.02;14.20;;;14.00;94.10;;;;;;5055447;28;20045;-75
2023/07/27 05:31:10;;;;;;;18.55;13.18;;;14.00;93.90;;;;;;5054980;28;20040;-75
2023/07/27 05:33:36;;;;;;;17.50;12.23;;;14.00;94.00;;;;;;5055029;28;20094;-74
2023/07/27 05:36:02;;;;;;;20.42;13.48;;;14.00;94.30;;;;;;5054870;28;20041;-75
2023/07/27 05:38:27;;;;;;;18.70;12.60;;;14.00;94.30;;;;;;5055261;28;20102;-75
2023/07/27 05:40:59;;;;;;;20.95;13.82;;;14.00;94.10;;;;;;5054937;28;20472;-75
2023/07/27 05:43:24;;;;;;;17.25;11.90;;;14.00;94.20;;;;;;5038611;28;20076;-75
2023/07/27 05:45:50;;;;;;;17.73;13.15;;;14.00;93.80;;;;;;5054686;28;20037;-75
2023/07/27 05:48:16;;;;;;;17.02;11.38;;;14.10;94.30;;;;;;5055063;28;20044;-74
2023/07/27 05:50:42;;;;;;;11.82;8.93;;;14.10;93.80;;;;;;5054492;28;20572;-75
2023/07/27 05:53:07;;;;;;;14.48;10.48;;;14.20;93.70;;;;;;5054703;28;20044;-75
2023/07/27 05:55:33;;;;;;;13.98;10.68;;;14.10;93.90;;;;;;5037967;28;20178;-74
2023/07/27 05:57:59;;;;;;;15.48;11.55;;;14.20;94.10;;;;;;5038285;28;20040;-75
2023/07/27 06:00:26;;;;;;;18.13;12.90;;;14.20;94.40;;;;;;5054485;28;20556;-75
2023/07/27 06:02:51;;;;;;;17.33;11.63;;;14.20;94.40;;;;;;5054794;28;20064;-75
2023/07/27 06:05:17;;;;;;;17.63;12.32;;;14.20;94.90;;;;;;5054656;28;20492;-75
2023/07/27 06:07:43;;;;;;;19.05;12.30;;;14.20;94.90;;;;;;5038215;28;20392;-75
2023/07/27 06:10:09;;;;;;;19.20;13.65;;;14.10;95.30;;;;;;5054689;28;20525;-75
2023/07/27 06:12:34;;;;;;;18.20;11.77;;;14.10;95.50;;;;;;5054338;28;20049;-75
2023/07/27 06:15:00;;;;;;;16.10;12.43;;;14.10;95.40;;;;;;5054379;28;20054;-74
2023/07/27 06:17:28;;;;;;;18.48;13.55;;;14.10;95.70;;;;;;5054271;28;20043;-75
2023/07/27 06:19:54;;;;;;;16.58;12.10;;;14.10;95.60;;;;;;5038140;28;20443;-75
2023/07/27 06:22:19;;;;;;;15.15;11.82;;;14.10;95.70;;;;;;5054201;28;20041;-75
2023/07/27 06:24:45;;;;;;;12.00;9.45;;;14.20;95.70;;;;;;5054195;28;20037;-75
2023/07/27 06:27:11;;;;;;;17.90;11.52;;;14.20;95.80;;;;;;5054003;28;20044;-75
2023/07/27 06:29:37;;;;;;;16.70;11.20;;;14.30;95.70;;;;;;5053933;28;20072;-75
2023/07/27 06:32:03;;;;;;;13.02;8.90;;;14.40;96.40;;;;;;5053960;28;20045;-75
2023/07/27 06:34:28;;;;;;;15.43;11.27;;;14.40;96.10;;;;;;5053863;28;20045;-75
2023/07/27 06:36:54;;;;;;;12.55;9.50;;;14.50;96.30;;;;;;5053888;28;20179;-75
2023/07/27 06:39:20;;;;;;;11.65;9.00;;;14.50;96.30;;;;;;5053921;28;20044;-75
2023/07/27 06:41:45;;;;;;;13.82;9.13;;;14.50;96.20;;;;;;5053819;28;20048;-75
2023/07/27 06:44:11;;;;;;;12.85;9.75;;;14.50;96.30;;;;;;5053656;28;20069;-75
2023/07/27 06:46:37;;;;;;;13.50;9.55;;;14.60;96.10;;;;;;5053739;28;20048;-74
2023/07/27 06:49:02;;;;;;;11.88;8.93;;;14.70;96.00;;;;;;5037169;28;20036;-74
2023/07/27 06:51:28;;;;;;;11.73;8.50;;;14.70;95.80;;;;;;5053332;28;20060;-75
2023/07/27 06:53:54;;;;;;;11.20;8.80;;;14.70;95.80;;;;;;5020442;28;20047;-75
2023/07/27 06:56:20;;;;;;;12.15;8.77;;;14.80;95.70;;;;;;5053637;28;20049;-75
2023/07/27 06:58:46;;;;;;;12.85;8.05;;;14.80;95.50;;;;;;5053468;28;20543;-75
2023/07/27 07:01:12;;;;;;;10.10;7.72;;;14.80;95.50;;;;;;5036898;28;20033;-74
2023/07/27 07:03:38;;;;;;;10.35;7.55;;;14.90;95.20;;;;;;5053375;28;20144;-75
2023/07/27 07:06:03;;;;;;;13.52;8.68;;;14.90;95.40;;;;;;5053281;28;20049;-75
2023/07/27 07:08:29;;;;;;;12.65;8.80;;;14.90;95.40;;;;;;5036713;28;20103;-75
2023/07/27 07:10:55;;;;;;;9.63;8.57;;;15.00;95.20;;;;;;5037012;28;20045;-75
2023/07/27 07:13:21;;;;;;;10.82;8.30;;;15.00;95.30;;;;;;5053167;28;20049;-75
2023/07/27 07:15:49;;;;;;;12.25;8.68;;;15.00;95.20;;;;;;5053004;28;20103;-75
2023/07/27 07:18:15;;;;;;;11.65;7.90;;;15.10;95.20;;;;;;5053141;28;20477;-76
2023/07/27 07:20:41;;;;;;;13.68;9.77;;;15.20;95.10;;;;;;5053089;28;20043;-75
2023/07/27 07:23:06;;;;;;;8.55;7.40;;;15.20;95.00;;;;;;5036448;28;20125;-75
2023/07/27 07:25:32;;;;;;;10.65;9.15;;;15.20;94.70;;;;;;5053187;28;20060;-74
2023/07/27 07:27:58;;;;;;;9.50;7.70;;;15.20;95.00;;;;;;5052839;28;20127;-75
2023/07/27 07:30:23;;;;;;;12.82;8.93;;;15.20;94.80;;;;;;5053190;28;20052;-75
2023/07/27 07:32:53;;;;;;;9.38;7.78;;;15.20;94.80;;;;;;5052851;28;20509;-75
2023/07/27 07:35:20;;;;;;;10.00;8.55;;;15.20;94.90;;;;;;5052671;28;20503;-75
2023/07/27 07:37:47;;;;;;;11.82;8.18;;;15.30;94.70;;;;;;5053017;28;20115;-75
2023/07/27 07:40:13;;;;;;;9.77;8.00;;;15.30;94.70;;;;;;5052649;28;20053;-75
2023/07/27 07:42:39;;;;;;;9.40;8.10;;;15.20;94.80;;;;;;5052865;28;20041;-75
2023/07/27 07:45:05;;;;;;;8.35;6.97;;;15.10;95.10;;;;;;5035762;28;20524;-75
2023/07/27 07:47:31;;;;;;;10.80;8.07;;;15.10;95.30;;;;;;5052585;28;20072;-75
2023/07/27 07:49:58;;;;;;;9.98;7.65;;;15.10;95.20;;;;;;5036018;28;20088;-75
2023/07/27 07:52:24;;;;;;;8.77;7.88;;;15.10;95.40;;;;;;5052774;28;20475;-75
2023/07/27 07:54:50;;;;;;;10.05;7.95;;;15.10;95.40;;;;;;5035779;28;20043;-75
2023/07/27 07:57:19;;;;;;;9.07;7.38;;;15.10;95.70;;;;;;5052394;28;20128;-75
2023/07/27 07:59:45;;;;;;;7.35;6.60;;;15.10;95.70;;;;;;5052601;28;20106;-75
2023/07/27 08:02:11;;;;;;;9.13;7.57;;;15.10;95.40;;;;;;5035785;28;20044;-75
2023/07/27 08:04:38;;;;;;;8.52;7.32;;;15.20;95.50;;;;;;5052443;28;20064;-75
2023/07/27 08:07:04;;;;;;;7.82;7.03;;;15.10;95.60;;;;;;5035950;28;20102;-75
2023/07/27 08:09:29;;;;;;;6.38;5.38;;;15.10;95.70;;;;;;5052443;28;20392;-75
2023/07/27 08:11:55;;;;;;;8.00;6.82;;;15.10;95.80;;;;;;5052082;28;20124;-75
2023/07/27 08:14:21;;;;;;;6.88;5.78;;;15.10;96.00;;;;;;5052008;28;20037;-75
2023/07/27 08:16:47;;;;;;;5.82;5.03;;;15.10;95.90;;;;;;5035444;28;20401;-75
2023/07/27 08:19:13;;;;;;;7.82;5.95;;;15.00;95.80;;;;;;5052332;28;20086;-75
2023/07/27 08:21:38;;;;;;;6.15;5.30;;;15.10;96.00;;;;;;5035393;28;20246;-75
2023/07/27 08:24:06;;;;;;;5.60;4.78;;;15.10;96.10;;;;;;5035646;28;20049;-75
2023/07/27 08:26:31;;;;;;;5.70;5.10;;;15.10;96.20;;;;;;5052116;28;20120;-75
2023/07/27 08:28:57;;;;;;;6.40;5.20;;;15.10;96.20;;;;;;5035553;28;20579;-75
2023/07/27 08:31:23;;;;;;;5.35;4.80;;;15.20;96.50;;;;;;5051827;28;20087;-75
2023/07/27 08:33:49;;;;;;;6.40;5.40;;;15.20;96.30;;;;;;5051828;28;20043;-75
2023/07/27 08:36:14;;;;;;;4.88;4.13;;;15.30;96.30;;;;;;5035007;28;20095;-75
2023/07/27 08:38:40;;;;;;;5.97;5.35;;;15.40;96.20;;;;;;5018827;28;20037;-75
2023/07/27 08:41:06;;;;;;;6.15;5.00;;;15.40;96.30;;;;;;5051973;28;20045;-75
2023/07/27 08:43:32;;;;;;;5.53;4.93;;;15.40;96.10;;;;;;5051947;28;20044;-75
2023/07/27 08:45:59;;;;;;;5.22;4.72;;;15.50;96.00;;;;;;5035177;28;20159;-75
2023/07/27 08:48:25;;;;;;;5.20;4.25;;;15.40;95.90;;;;;;5051660;28;20051;-75
2023/07/27 08:50:52;;;;;;;4.70;4.30;;;15.40;95.80;;;;;;5051554;28;20084;-75
2023/07/27 08:53:18;;;;;;;5.70;4.95;;;15.40;95.90;;;;;;5034954;28;20040;-75
2023/07/27 08:55:45;;;;;;;6.68;5.15;;;15.40;96.00;;;;;;5050497;28;20060;-75
2023/07/27 08:58:11;;;;;;;4.40;4.00;;;15.40;96.10;;;;;;5034903;28;20040;-75
2023/07/27 09:00:38;;;;;;;6.15;5.22;;;15.50;95.90;;;;;;5034933;28;20110;-75
2023/07/27 09:03:05;;;;;;;6.53;5.90;;;15.50;96.30;;;;;;5035003;28;20069;-75
2023/07/27 09:05:39;;;;;;;6.75;5.85;;;15.50;96.40;;;;;;5034701;28;20048;-75
2023/07/27 09:08:10;;;;;;;6.00;5.40;;;15.50;96.30;;;;;;5051378;28;20397;-75
2023/07/27 09:10:37;;;;;;;6.38;5.75;;;15.50;96.30;;;;;;5051496;28;20099;-75
2023/07/27 09:13:03;;;;;;;6.00;5.47;;;15.50;96.40;;;;;;5051412;28;20049;-75
2023/07/27 09:15:29;;;;;;;5.68;5.10;;;15.50;96.10;;;;;;5051410;28;20052;-76
2023/07/27 09:18:01;;;;;;;6.55;5.72;;;15.50;96.30;;;;;;5051269;28;20099;-75
2023/07/27 09:20:27;;;;;;;6.10;5.50;;;15.50;96.30;;;;;;5034984;28;20041;-75
2023/07/27 09:22:55;;;;;;;6.65;5.53;;;15.50;96.30;;;;;;5051279;28;20037;-75
2023/07/27 09:25:22;;;;;;;7.22;6.03;;;15.60;96.40;;;;;;5051262;28;20057;-75
2023/07/27 09:27:50;;;;;;;6.53;5.47;;;15.70;96.50;;;;;;5034771;28;20045;-76
2023/07/27 09:30:17;;;;;;;6.25;5.65;;;15.70;96.40;;;;;;5018702;28;20041;-75
2023/07/27 09:32:42;;;;;;;6.55;5.95;;;15.70;96.50;;;;;;5051292;28;20052;-74
2023/07/27 09:35:16;;;;;;;6.50;5.90;;;15.80;96.50;;;;;;5034472;28;20041;-75
2023/07/27 09:37:51;;;;;;;5.80;5.20;;;15.90;96.30;;;;;;5051579;28;20044;-75
2023/07/27 09:40:19;;;;;;;6.70;6.10;;;15.80;96.10;;;;;;5034658;28;20037;-75
2023/07/27 09:42:46;;;;;;;5.78;5.28;;;15.90;96.20;;;;;;5051134;28;20045;-75
2023/07/27 09:45:13;;;;;;;5.68;5.18;;;15.90;96.10;;;;;;5051387;28;20446;-75
2023/07/27 09:47:39;;;;;;;7.72;6.10;;;16.00;96.10;;;;;;5051451;28;20041;-75
2023/07/27 09:50:07;;;;;;;6.65;5.95;;;16.00;96.00;;;;;;5050851;28;20058;-75
2023/07/27 09:52:35;;;;;;;6.70;5.22;;;16.00;96.20;;;;;;5051054;28;20045;-75
2023/07/27 09:55:01;;;;;;;6.85;6.15;;;16.00;96.10;;;;;;5050904;28;20036;-75
2023/07/27 09:57:27;;;;;;;6.45;5.85;;;16.10;96.10;;;;;;5051268;28;20095;-75
2023/07/27 09:59:53;;;;;;;7.00;6.40;;;16.10;96.10;;;;;;5050923;28;20532;-75
2023/07/27 10:02:20;;;;;;;7.53;6.43;;;16.10;96.10;;;;;;5017948;28;20038;-75
2023/07/27 10:04:49;;;;;;;7.28;6.68;;;16.20;96.10;;;;;;5050864;28;20045;-74
2023/07/27 10:07:19;;;;;;;7.68;6.65;;;16.20;96.20;;;;;;5052551;28;20114;-75
2023/07/27 10:09:46;;;;;;;8.38;7.57;;;16.40;96.20;;;;;;5054450;28;20497;-75
2023/07/27 10:12:27;;;;;;;7.25;6.55;;;16.40;96.30;;;;;;5054391;28;20045;-74
2023/07/27 10:15:40;;;;;;;8.48;7.78;;;16.40;96.20;;;;;;5054559;28;20102;-75
2023/07/27 10:18:06;;;;;;;8.25;7.55;;;16.50;96.50;;;;;;5053123;28;20053;-75
2023/07/27 10:20:33;;;;;;;8.18;7.43;;;16.60;96.40;;;;;;5037978;28;20048;-75
2023/07/27 10:23:17;;;;;;;7.60;6.90;;;16.60;96.50;;;;;;5037702;28;20041;-75
2023/07/27 10:25:55;;;;;;;8.65;7.85;;;16.60;96.50;;;;;;5054231;28;20539;-75
2023/07/27 10:28:32;;;;;;;7.20;6.50;;;16.60;96.50;;;;;;5037487;28;20049;-75
2023/07/27 10:31:26;;;;;;;7.65;6.93;;;16.70;96.40;;;;;;5054004;28;20040;-75
2023/07/27 10:33:59;;;;;;;9.38;8.48;;;16.70;96.20;;;;;;5054238;28;20118;-75
2023/07/27 10:36:47;;;;;;;8.88;8.07;;;16.70;96.10;;;;;;5037364;28;20409;-75
2023/07/27 10:39:18;;;;;;;9.27;7.93;;;16.80;96.30;;;;;;5037201;28;20041;-75
2023/07/27 10:42:06;;;;;;;8.82;7.93;;;16.90;96.20;;;;;;5037775;28;20454;-75
2023/07/27 10:44:43;;;;;;;9.43;8.32;;;16.90;96.40;;;;;;5037475;28;20124;-75
2023/07/27 10:47:13;;;;;;;9.52;8.63;;;16.90;96.40;;;;;;5053998;28;20037;-75
2023/07/27 10:49:44;;;;;;;8.32;7.57;;;16.90;96.50;;;;;;5053464;28;20056;-75
2023/07/27 10:52:14;;;;;;;9.57;8.75;;;16.90;96.50;;;;;;5053921;28;20394;-75
2023/07/27 10:54:41;;;;;;;10.98;8.60;;;16.90;96.30;;;;;;5053503;28;20401;-75
2023/07/27 10:57:09;;;;;;;9.82;8.98;;;17.00;96.50;;;;;;5053528;28;20040;-75
2023/07/27 10:59:40;;;;;;;7.95;7.15;;;17.10;96.40;;;;;;5053548;28;20049;-75
2023/07/27 11:02:30;;;;;;;9.40;8.50;;;17.10;96.40;;;;;;5053732;28;20040;-75
2023/07/27 11:05:00;;;;;;;10.23;9.32;;;17.20;96.60;;;;;;5053176;28;20378;-75
2023/07/27 11:07:26;;;;;;;9.70;8.80;;;17.30;96.80;;;;;;5053626;28;20037;-75
2023/07/27 11:09:52;;;;;;;8.88;8.07;;;17.30;96.60;;;;;;5053654;28;20041;-75
2023/07/27 11:12:17;;;;;;;7.75;7.15;;;17.40;96.50;;;;;;5053326;28;20037;-75
2023/07/27 11:14:43;;;;;;;7.78;6.90;;;17.40;96.40;;;;;;5053213;28;20041;-75
2023/07/27 11:17:11;;;;;;;8.98;8.18;;;17.50;96.20;;;;;;5053122;28;20045;-75
2023/07/27 11:19:37;;;;;;;10.10;9.10;;;17.50;96.20;;;;;;5052208;28;20045;-75
2023/07/27 11:22:03;;;;;;;8.95;8.15;;;17.60;96.10;;;;;;5053087;28;20066;-75
2023/07/27 11:24:30;;;;;;;9.38;8.57;;;17.70;96.30;;;;;;5036543;28;20041;-75
2023/07/27 11:26:55;;;;;;;7.15;6.45;;;17.80;96.30;;;;;;5053202;28;20131;-75
2023/07/27 11:29:22;;;;;;;8.05;7.35;;;17.80;96.10;;;;;;5036394;28;20467;-75
2023/07/27 11:31:59;;;;;;;6.68;6.13;;;17.80;96.10;;;;;;5036480;28;20049;-75
2023/07/27 11:34:26;;;;;;;6.93;6.32;;;18.00;96.20;;;;;;5053304;28;20052;-76
2023/07/27 11:36:56;;;;;;;7.25;6.65;;;17.90;96.20;;;;;;5052853;28;20132;-75
2023/07/27 11:39:22;;;;;;;7.95;7.25;;;17.90;96.10;;;;;;5052790;28;20094;-75
2023/07/27 11:41:50;;;;;;;7.70;7.03;;;17.90;96.10;;;;;;5052747;28;20040;-75
2023/07/27 11:44:23;;;;;;;7.25;6.55;;;18.00;96.10;;;;;;5036296;28;20045;-75
2023/07/27 11:46:52;;;;;;;7.07;6.38;;;18.00;96.10;;;;;;5052630;28;20048;-75
2023/07/27 11:49:20;;;;;;;8.63;7.82;;;18.00;96.00;;;;;;5052609;28;20044;-75
2023/07/27 11:51:47;;;;;;;7.15;6.47;;;18.00;95.90;;;;;;5052487;28;20083;-75
2023/07/27 11:54:27;;;;;;;9.25;8.45;;;18.00;96.00;;;;;;5052471;28;20099;-76
2023/07/27 11:56:55;;;;;;;8.93;8.13;;;18.00;96.00;;;;;;5052333;28;20055;-76
2023/07/27 11:59:21;;;;;;;8.50;7.70;;;18.00;96.00;;;;;;5035881;28;20492;-76
2023/07/27 12:01:51;;;;;;;7.72;6.75;;;18.00;96.10;;;;;;5052605;28;20041;-76
2023/07/27 12:04:21;;;;;;;8.60;7.82;;;18.00;96.10;;;;;;5052241;28;20097;-76
2023/07/27 12:06:47;;;;;;;7.18;6.53;;;18.00;95.90;;;;;;5052560;28;20389;-76
2023/07/27 12:09:13;;;;;;;7.40;6.70;;;18.00;96.00;;;;;;5019272;28;20036;-76
2023/07/27 12:11:39;;;;;;;10.60;8.75;;;18.00;96.00;;;;;;5052118;28;20111;-76
2023/07/27 12:14:08;;;;;;;10.68;9.50;;;18.10;95.90;;;;;;5035533;28;20053;-76
2023/07/27 12:16:38;;;;;;;5.40;4.38;;;18.30;95.80;;;;;;5052068;28;20049;-76
2023/07/27 12:19:07;;;;;;;5.55;4.60;;;18.40;95.60;;;;;;5052167;28;20041;-75
2023/07/27 12:21:37;;;;;;;4.80;3.47;;;18.50;95.50;;;;;;5036162;28;20116;-75
2023/07/27 12:24:10;;;;;;;6.57;5.18;;;18.50;95.30;;;;;;5052018;28;20041;-76
2023/07/27 12:26:37;;;;;;;2.30;1.77;;;18.60;95.20;;;;;;5052113;28;20049;-76
2023/07/27 12:29:03;;;;;;;3.40;2.90;;;18.70;95.20;;;;;;5051845;28;20105;-76
2023/07/27 12:31:30;;;;;;;2.53;1.80;;;18.80;95.00;;;;;;5052130;28;20080;-75
2023/07/27 12:33:56;;;;;;;0.93;0.80;;;18.80;94.80;;;;;;5052091;28;20048;-75
2023/07/27 12:36:22;;;;;;;3.92;2.85;;;18.80;94.30;;;;;;5051881;28;20504;-75
2023/07/27 12:38:47;;;;;;;4.50;3.35;;;18.80;94.30;;;;;;5052025;28;20045;-75
2023/07/27 12:41:13;;;;;;;4.53;3.50;;;18.90;94.10;;;;;;5051692;28;20537;-75